Latest Weather Observations for Nuriootpa

IDS60801

Issued at 9:01 am CDT Saturday 10 December 2022 (issued every 10 minutes, with the page automatically refreshed every 10 minutes)

About weather observations | Map of weather stations | Latest weather observations for SA | Other Formats
Station Details ID: 023373 Name: NURIOOTPA PIRSA Lat: -34.48 Lon: 139.01 Height: 275.0 m
Data from the previous 72 hours. | See also: Recent months at Nuriootpa
Date/Time
CDT
Temp
°C
App
Temp
°C
Dew
Point
°C
Rel
Hum
%
Delta-T
°C
Wind Press
QNH
hPa
Press
MSL
hPa
Rain since
9am
mm
Dir  Spd
km/h
Gust
km/h
Spd
kts
Gust
kts
10/09:00am 20.4 16.4 6.7 41 7.0 NE 17 24 9 13 1012.6 1011.7 0.0
10/08:30am 19.4 15.7 6.5 43 6.5 NE 15 22 8 12 1012.5 1011.6 0.0
10/08:00am 18.3 14.3 6.5 46 5.9 NE 17 24 9 13 1012.8 1011.9 0.0
10/07:30am 17.1 12.9 5.7 47 5.6 NE 17 24 9 13 1012.7 1011.8 0.0
10/07:00am 16.4 12.6 5.7 49 5.2 NE 15 22 8 12 1012.7 1011.8 0.0
10/06:30am 16.1 12.1 4.8 47 5.4 NE 15 20 8 11 1012.7 1011.8 0.0
10/06:00am 15.4 11.3 4.2 47 5.3 NE 15 22 8 12 1012.5 1011.6 0.0
10/05:30am 15.6 11.9 4.3 47 5.3 ENE 13 19 7 10 1012.5 1011.6 0.0
10/05:00am 15.3 11.6 4.4 48 5.1 ENE 13 17 7 9 1012.5 1011.6 0.0
10/04:30am 15.1 11.7 3.9 47 5.2 NE 11 15 6 8 1012.4 1011.5 0.0
10/04:00am 15.8 12.4 3.9 45 5.6 NE 11 15 6 8 1012.4 1011.5 0.0
10/03:30am 16.0 12.2 4.1 45 5.6 NE 13 17 7 9 1012.5 1011.6 0.0
10/03:00am 16.0 12.2 4.1 45 5.6 NE 13 19 7 10 1012.6 1011.7 0.0
10/02:30am 16.0 11.9 4.4 46 5.5 NE 15 24 8 13 1012.8 1011.9 0.0
10/02:00am 16.3 12.3 4.7 46 5.6 NE 15 22 8 12 1013.1 1012.2 0.0
10/01:30am 16.5 12.9 4.9 46 5.6 NE 13 20 7 11 1013.2 1012.3 0.0
10/01:00am 16.5 12.8 4.5 45 5.7 ENE 13 19 7 10 1013.5 1012.6 0.0
10/12:30am 16.5 13.2 4.5 45 5.7 ENE 11 20 6 11 1013.7 1012.8 0.0
10/12:00am 16.6 12.9 4.6 45 5.7 ENE 13 20 7 11 1013.9 1013.0 0.0
 
Date/Time
CDT
Temp
°C
App
Temp
°C
Dew
Point
°C
Rel
Hum
%
Delta-T
°C
Wind Press
QNH
hPa
Press
MSL
hPa
Rain since
9am
mm
Dir  Spd
km/h
Gust
km/h
Spd
kts
Gust
kts
09/11:30pm 16.9 13.3 4.9 45 5.8 NE 13 19 7 10 1013.9 1013.0 0.0
09/11:00pm 17.5 13.9 5.1 44 6.0 ENE 13 19 7 10 1014.0 1013.1 0.0
09/10:30pm 18.0 14.4 5.2 43 6.3 ENE 13 20 7 11 1014.1 1013.2 0.0
09/10:00pm 18.0 14.9 5.6 44 6.1 ENE 11 15 6 8 1014.0 1013.1 0.0
09/09:30pm 18.4 15.3 5.6 43 6.3 NE 11 17 6 9 1013.7 1012.8 0.0
09/09:00pm 19.2 16.6 6.0 42 6.6 ENE 9 13 5 7 1013.5 1012.6 0.0
09/08:30pm 19.2 17.3 6.7 44 6.4 ENE 6 7 3 4 1013.4 1012.5 0.0
09/08:00pm 21.5 18.8 5.8 36 8.0 ENE 9 17 5 9 1013.2 1012.3 0.0
09/07:30pm 22.4 19.0 5.8 34 8.5 ENE 13 20 7 11 1013.1 1012.2 0.0
09/07:00pm 23.0 19.6 5.9 33 8.8 ENE 13 22 7 12 1013.0 1012.1 0.0
09/06:30pm 23.3 19.9 6.1 33 8.9 E 13 22 7 12 1012.9 1012.0 0.0
09/06:00pm 23.6 20.3 6.4 33 8.9 ENE 13 20 7 11 1012.7 1011.8 0.0
09/05:30pm 23.7 20.4 6.5 33 9.0 E 13 22 7 12 1012.9 1012.0 0.0
09/05:00pm 23.8 21.1 7.4 35 8.7 ENE 11 17 6 9 1013.3 1012.4 0.0
09/04:30pm 23.2 19.9 6.5 34 8.7 ENE 13 22 7 12 1013.6 1012.7 0.0
09/04:00pm 23.2 20.3 6.5 34 8.7 NNE 11 19 6 10 1013.8 1012.9 0.0
09/03:30pm 22.9 19.6 6.6 35 8.5 NE 13 24 7 13 1014.4 1013.4 0.0
09/03:00pm 21.8 18.4 6.1 36 8.0 NE 13 17 7 9 1014.7 1013.8 0.0
09/02:30pm 21.6 17.9 6.3 37 7.8 NE 15 22 8 12 1014.9 1014.0 0.0
09/02:00pm 20.9 17.1 5.7 37 7.7 ENE 15 28 8 15 1015.3 1014.4 0.0
09/01:30pm 20.6 17.1 5.4 37 7.6 NE 13 24 7 13 1015.7 1014.8 0.0
09/01:00pm 19.5 15.7 5.6 40 6.9 ENE 15 24 8 13 1016.1 1015.2 0.0
09/12:30pm 18.7 14.7 4.8 40 6.8 NE 15 24 8 13 1016.3 1015.4 0.0
09/12:00pm 18.1 14.1 5.0 42 6.4 NE 15 20 8 11 1016.8 1015.9 0.0
09/11:30am 17.4 12.6 4.4 42 6.2 ENE 19 28 10 15 1016.9 1016.0 0.0
09/11:00am 16.7 12.0 5.0 46 5.7 ENE 19 28 10 15 1017.0 1016.1 0.0
09/10:30am 15.3 9.9 4.7 49 5.0 ENE 22 35 12 19 1017.1 1016.2 0.0
09/10:00am 14.1 8.9 3.8 50 4.8 ENE 20 30 11 16 1017.6 1016.7 0.0
09/09:30am 13.3 8.8 4.2 54 4.2 ENE 17 26 9 14 1018.3 1017.4 0.0
09/09:00am 12.6 7.5 4.1 56 3.9 ENE 20 30 11 16 1018.7 1017.8 0.0
09/08:30am 11.8 7.7 4.1 59 3.5 ENE 15 26 8 14 1018.8 1017.9 0.0
09/08:00am 11.1 6.9 3.9 61 3.2 E 15 24 8 13 1018.3 1017.4 0.0
09/07:30am 10.6 6.4 3.9 63 3.0 E 15 24 8 13 1017.6 1016.7 0.0
09/07:00am 10.3 6.1 4.0 65 2.8 E 15 30 8 16 1017.0 1016.1 0.0
09/06:30am 10.2 5.6 3.9 65 2.8 E 17 28 9 15 1016.6 1015.7 0.0
09/06:00am 10.2 6.0 3.9 65 2.8 E 15 24 8 13 1016.8 1015.9 0.0
09/05:30am 10.5 6.3 4.0 64 2.9 E 15 26 8 14 1015.9 1015.0 0.0
09/05:00am 10.6 6.8 3.9 63 3.0 E 13 22 7 12 1015.5 1014.6 0.0
09/04:30am 10.4 6.3 4.3 66 2.8 E 15 24 8 13 1015.3 1014.4 0.0
09/04:00am 10.4 5.6 4.5 67 2.7 E 19 28 10 15 1015.3 1014.4 0.0
09/03:30am 10.5 6.8 4.6 67 2.7 E 13 22 7 12 1015.9 1015.0 0.0
09/03:00am 10.3 6.0 5.1 70 2.4 E 17 26 9 14 1016.1 1015.2 0.0
09/02:30am 10.2 5.5 5.2 71 2.3 ESE 19 30 10 16 1016.1 1015.2 0.0
09/02:00am 10.1 5.4 5.3 72 2.2 ESE 19 33 10 18 1016.0 1015.1 0.0
09/01:30am 9.9 5.0 5.1 72 2.2 ESE 20 28 11 15 1016.8 1015.9 0.0
09/01:00am 9.9 5.0 5.3 73 2.1 SE 20 32 11 17 1017.2 1016.3 0.0
09/12:30am 10.0 5.1 5.0 71 2.3 SE 20 33 11 18 1017.4 1016.5 0.0
09/12:00am 10.0 5.3 5.0 71 2.3 SE 19 28 10 15 1017.6 1016.7 0.0
 
Date/Time
CDT
Temp
°C
App
Temp
°C
Dew
Point
°C
Rel
Hum
%
Delta-T
°C
Wind Press
QNH
hPa
Press
MSL
hPa
Rain since
9am
mm
Dir  Spd
km/h
Gust
km/h
Spd
kts
Gust
kts
08/11:30pm 10.4 5.7 5.2 70 2.4 SE 19 33 10 18 1017.4 1016.5 0.0
08/11:00pm 10.6 6.3 5.2 69 2.5 SE 17 22 9 12 1018.1 1017.2 0.0
08/10:30pm 11.0 6.6 4.7 65 2.9 SE 17 30 9 16 1018.4 1017.5 0.0
08/10:00pm 11.2 6.4 4.7 64 3.0 SE 19 30 10 16 1018.4 1017.5 0.0
08/09:30pm 11.5 6.7 4.5 62 3.2 SE 19 26 10 14 1018.2 1017.3 0.0
08/09:00pm 12.1 8.5 5.0 62 3.3 SE 13 24 7 13 1017.9 1017.1 0.0
08/08:30pm 12.7 9.5 4.9 59 3.6 SE 11 19 6 10 1017.9 1017.1 0.0
08/08:00pm 13.7 10.2 5.6 58 3.9 ESE 13 24 7 13 1017.5 1016.6 0.0
08/07:30pm 14.7 10.9 5.8 55 4.3 ESE 15 20 8 11 1017.1 1016.2 0.0
08/07:00pm 15.6 11.5 6.1 53 4.7 ESE 17 28 9 15 1016.7 1015.8 0.0
08/06:30pm 17.1 12.4 6.0 48 5.5 SE 20 28 11 15 1016.2 1015.3 0.0
08/06:00pm 18.1 13.7 6.6 47 5.8 SE 19 30 10 16 1015.7 1014.8 0.0
08/05:30pm 18.8 14.5 5.3 41 6.7 SSE 17 24 9 13 1015.9 1015.0 0.0
08/05:00pm 19.0 15.7 6.5 44 6.3 ESE 13 24 7 13 1016.0 1015.1 0.0
08/04:30pm 19.1 15.1 6.6 44 6.3 SSE 17 32 9 17 1016.6 1015.7 0.0
08/04:00pm 18.8 13.9 6.9 46 6.1 SE 22 33 12 18 1016.3 1015.4 0.0
08/03:30pm 19.3 16.2 7.4 46 6.1 SSE 13 24 7 13 1016.8 1015.9 0.0
08/03:00pm 19.2 16.1 7.3 46 6.1 SSE 13 22 7 12 1017.2 1016.3 0.0
08/02:30pm 18.3 14.3 4.8 41 6.6 SE 15 28 8 15 1017.6 1016.7 0.0
08/02:00pm 18.0 14.6 4.2 40 6.6 E 11 20 6 11 1017.9 1017.1 0.0
08/01:30pm 17.9 13.7 5.8 45 6.0 S 17 24 9 13 1018.5 1017.6 0.0
08/01:00pm 17.1 12.2 5.1 45 5.8 SSE 20 33 11 18 1018.2 1017.3 0.0
08/12:30pm 16.7 12.0 5.0 46 5.6 SE 19 28 10 15 1018.5 1017.6 0.0
08/12:00pm 17.0 12.5 4.3 43 6.0 SSE 17 28 9 15 1018.6 1017.7 0.0
08/11:30am 16.5 12.3 3.9 43 5.9 SSE 15 24 8 13 1018.9 1018.0 0.0
08/11:00am 16.0 11.4 3.8 44 5.7 S 17 30 9 16 1018.9 1018.0 0.0
08/10:30am 14.8 11.4 3.9 48 5.1 S 11 20 6 11 1019.1 1018.2 0.0
08/10:00am 13.7 9.7 5.1 56 4.1 SW 15 24 8 13 1019.4 1018.5 0.0
08/09:30am 14.2 10.5 4.2 51 4.6 SSW 13 22 7 12 1019.4 1018.5 0.0
08/09:00am 12.4 7.2 3.4 54 4.1 S 20 32 11 17 1019.5 1018.6 0.0
08/08:30am 12.1 9.5 6.2 67 2.8 SSW 9 15 5 8 1019.3 1018.4 0.0
08/08:00am 10.5 8.3 5.1 69 2.5 SSW 6 9 3 5 1019.1 1018.2 0.0
08/07:30am 9.3 8.3 5.5 77 1.7 CALM 0 0 0 0 1018.8 1017.9 0.0
08/07:00am 7.7 6.1 6.3 91 0.6 ENE 4 7 2 4 1018.6 1017.7 0.0
08/06:30am 5.1 3.8 3.9 92 0.5 CALM 0 0 0 0 1017.8 1017.0 0.0
08/06:00am 4.6 3.2 3.4 92 0.5 CALM 0 0 0 0 1017.7 1016.8 0.0
08/05:30am 5.4 4.0 3.7 89 0.7 CALM 0 0 0 0 1017.4 1016.5 0.0
08/05:00am 6.3 3.9 4.3 87 0.9 SSW 6 7 3 4 1017.2 1016.3 0.0
08/04:30am 7.7 5.5 5.5 86 1.0 SSW 6 7 3 4 1017.3 1016.4 0.0
08/04:00am 7.0 5.9 5.3 89 0.8 CALM 0 0 0 0 1017.2 1016.3 0.0
08/03:30am 5.8 4.6 4.6 92 0.5 CALM 0 0 0 0 1016.9 1016.0 0.0
08/03:00am 5.5 4.1 3.8 89 0.7 CALM 0 0 0 0 1016.8 1015.9 0.0
08/02:30am 6.4 3.9 3.7 83 1.2 SSW 6 7 3 4 1017.0 1016.1 0.0
08/02:00am 6.6 4.1 4.9 89 0.8 SSW 7 7 4 4 1017.1 1016.2 0.0
08/01:30am 5.8 3.3 3.6 86 0.9 SSW 6 7 3 4 1017.2 1016.3 0.0
08/01:00am 6.8 4.3 3.9 82 1.3 SSW 6 7 3 4 1017.5 1016.6 0.0
08/12:30am 7.2 4.5 3.8 79 1.5 SW 7 9 4 5 1017.5 1016.6 0.0
08/12:00am 7.8 4.8 4.0 77 1.7 SW 9 11 5 6 1017.6 1016.7 0.0
 
Date/Time
CDT
Temp
°C
App
Temp
°C
Dew
Point
°C
Rel
Hum
%
Delta-T
°C
Wind Press
QNH
hPa
Press
MSL
hPa
Rain since
9am
mm
Dir  Spd
km/h
Gust
km/h
Spd
kts
Gust
kts
07/11:30pm 8.4 5.4 4.0 74 1.9 SSW 9 11 5 6 1017.5 1016.6 0.0
07/11:00pm 9.1 6.1 3.9 70 2.3 SSW 9 13 5 7 1017.4 1016.5 0.0
07/10:30pm 10.0 6.2 4.0 66 2.7 SSW 13 19 7 10 1017.2 1016.3 0.0
07/10:00pm 10.7 6.6 4.4 65 2.9 SSW 15 26 8 14 1016.8 1015.9 0.0
07/09:30pm 11.6 6.3 5.0 64 3.1 S 22 37 12 20 1016.2 1015.3 0.0
07/09:00pm 12.3 8.6 6.4 67 2.8 S 15 24 8 13 1015.4 1014.5 0.0
07/08:30pm 13.3 9.7 6.9 65 3.1 S 15 24 8 13 1015.0 1014.1 0.0
07/08:00pm 14.4 9.8 6.7 60 3.8 S 20 33 11 18 1014.5 1013.5 0.0
07/07:30pm 15.6 10.9 7.6 59 4.0 S 22 35 12 19 1013.9 1013.0 0.0
07/07:00pm 17.2 12.4 7.5 53 4.9 SW 22 33 12 18 1013.3 1012.4 0.0
07/06:33pm 17.0 11.2 7.9 55 4.7 WSW 28 46 15 25 1012.8 1011.9 0.0
07/06:30pm 16.7 9.9 7.1 53 4.8 WSW 32 46 17 25 1012.7 1011.8 0.0
07/06:21pm 17.3 11.3 7.1 51 5.2 WSW 28 46 15 25 1012.6 1011.7 0.0
07/06:00pm 17.3 11.4 7.6 53 5.0 SW 28 43 15 23 1012.5 1011.6 0.0
07/05:30pm 17.2 11.0 9.4 60 4.1 SW 32 43 17 23 1012.4 1011.5 0.0
07/05:00pm 18.0 11.7 8.8 55 4.8 WSW 32 50 17 27 1012.1 1011.2 0.0
07/04:38pm 19.1 12.4 7.5 47 6.0 WSW 32 50 17 27 1011.9 1011.0 0.0
07/04:30pm 18.4 11.2 5.9 44 6.2 WSW 33 48 18 26 1011.8 1010.9 0.0
07/04:09pm 19.3 12.1 5.7 41 6.8 WSW 33 48 18 26 1011.6 1010.7 0.0
07/04:00pm 19.4 11.8 5.8 41 6.8 SW 35 50 19 27 1011.6 1010.7 0.0
07/03:30pm 19.8 12.6 5.8 40 7.0 SW 33 52 18 28 1011.5 1010.6 0.0
07/03:00pm 19.6 13.1 6.4 42 6.7 SW 30 50 16 27 1011.4 1010.4 0.0
07/02:59pm 19.6 13.5 6.4 42 6.7 SW 28 46 15 25 1011.4 1010.4 0.0
07/02:30pm 19.2 13.3 7.3 46 6.1 SW 28 39 15 21 1011.4 1010.4 0.0
07/02:00pm 19.5 14.5 8.2 48 5.9 SW 24 43 13 23 1011.3 1010.3 0.0
07/01:30pm 19.5 14.0 7.6 46 6.2 SW 26 41 14 22 1011.2 1010.2 0.0
07/01:00pm 19.0 13.8 7.1 46 6.1 WSW 24 39 13 21 1011.1 1010.1 0.0
07/12:30pm 18.7 12.4 7.2 47 5.9 SW 30 43 16 23 1011.1 1010.1 0.0
07/12:00pm 18.2 13.0 7.3 49 5.6 WSW 24 39 13 21 1011.2 1010.2 0.0
07/11:30am 17.1 11.5 7.2 52 5.0 WSW 26 37 14 20 1011.1 1010.1 0.0
07/11:14am 17.4 11.6 8.0 54 4.8 SW 28 46 15 25 1011.1 1010.1 0.0
07/11:00am 16.6 11.0 7.3 54 4.7 WSW 26 37 14 20 1011.1 1010.1 0.0
07/10:30am 16.3 11.4 8.3 59 4.1 WSW 24 33 13 18 1011.0 1010.0 0.0
07/10:00am 16.1 12.0 8.8 62 3.8 SW 20 30 11 16 1010.7 1009.7 0.0
07/09:30am 15.1 11.8 9.7 70 2.8 WSW 17 22 9 12 1010.6 1009.6 0.0

Other formats

Comma delimited format used in spreadsheet applications
http://www.bom.gov.au/fwo/IDS60801/IDS60801.94681.axf

JavaScript Object Notation format (JSON) in row-major order
http://www.bom.gov.au/fwo/IDS60801/IDS60801.94681.json

Data quality

Most of these data are generated automatically and are frequently updated. Quality checks on data are not normally performed. It is possible for incorrect values to appear. Refer to information at About Latest Weather Observations and please check the disclaimer before using these data.